createdAt,value
2022-11-21T16:55:23.312Z,-4.32
2022-11-21T16:57:50.117Z,-4.22
2022-11-21T17:00:18.099Z,-4.13
2022-11-21T17:02:45.207Z,-4.12
2022-11-21T17:05:11.815Z,-3.99
2022-11-21T17:07:38.436Z,-3.93
2022-11-21T17:10:05.430Z,-3.88
2022-11-21T17:12:41.544Z,-3.79
2022-11-21T17:15:11.392Z,-3.80
2022-11-21T17:17:38.271Z,-3.83
2022-11-21T17:20:06.690Z,-3.66
2022-11-21T17:22:37.462Z,-3.64
2022-11-21T17:25:04.413Z,-3.54
2022-11-21T17:27:31.132Z,-3.50
2022-11-21T17:30:01.301Z,-3.45
2022-11-21T17:32:27.859Z,-3.46
2022-11-21T17:34:54.422Z,-3.47
2022-11-21T17:37:21.118Z,-3.56
2022-11-21T17:39:48.187Z,-3.49
2022-11-21T17:42:17.047Z,-3.47
2022-11-21T17:44:43.846Z,-3.45
2022-11-21T17:47:10.550Z,-3.37
2022-11-21T17:49:37.279Z,-3.39
2022-11-21T17:52:06.580Z,-3.33
2022-11-21T17:54:33.258Z,-3.35
2022-11-21T17:57:00.183Z,-3.41
2022-11-21T17:59:28.235Z,-3.41
2022-11-21T18:01:56.087Z,-3.35
2022-11-21T18:04:23.004Z,-3.33
2022-11-21T18:06:50.306Z,-3.34
2022-11-21T18:09:17.108Z,-3.34
2022-11-21T18:11:44.138Z,-3.29
2022-11-21T18:14:12.955Z,-3.29
2022-11-21T18:16:43.571Z,-3.33
2022-11-21T18:19:15.791Z,-3.39
2022-11-21T18:21:42.530Z,-3.35
2022-11-21T18:24:09.201Z,-3.45
2022-11-21T18:26:38.330Z,-3.36
2022-11-21T18:29:37.521Z,-3.33
2022-11-21T18:31:56.930Z,-3.30
2022-11-21T18:34:26.559Z,-3.34
2022-11-21T18:36:57.275Z,-3.34
2022-11-21T18:39:25.240Z,-3.30
2022-11-21T18:41:51.950Z,-3.30
2022-11-21T18:44:22.266Z,-3.35
2022-11-21T18:46:49.692Z,-3.34
2022-11-21T18:49:16.329Z,-3.30
2022-11-21T18:51:46.151Z,-3.30
2022-11-21T18:54:13.207Z,-3.27
2022-11-21T18:56:40.923Z,-3.27
2022-11-21T18:59:07.705Z,-3.21
2022-11-21T19:01:36.617Z,-3.22
2022-11-21T19:04:06.093Z,-3.47
2022-11-21T19:06:33.058Z,-3.24
2022-11-21T19:09:00.393Z,-3.19
2022-11-21T19:11:29.095Z,-3.22
2022-11-21T19:13:57.536Z,-3.21
2022-11-21T19:16:25.959Z,-3.24
2022-11-21T19:21:41.700Z,-3.20
2022-11-21T19:24:13.296Z,-3.18
2022-11-21T19:26:40.649Z,-3.25
2022-11-21T19:29:08.979Z,-3.22
2022-11-21T19:31:39.288Z,-3.27
2022-11-21T19:34:09.517Z,-3.31
2022-11-21T19:36:36.605Z,-3.26
2022-11-21T19:39:03.327Z,-3.23
2022-11-21T19:41:30.890Z,-3.22
2022-11-21T19:43:59.602Z,-3.26
2022-11-21T19:46:28.675Z,-3.25
2022-11-21T19:48:56.747Z,-3.30
2022-11-21T19:51:28.025Z,-3.20
2022-11-21T19:53:55.742Z,-3.19
2022-11-21T19:56:27.262Z,-3.17
2022-11-21T19:58:55.984Z,-3.21
2022-11-21T20:01:28.047Z,-3.19
2022-11-21T20:03:57.635Z,-3.17
2022-11-21T20:06:29.389Z,-3.22
2022-11-21T20:09:01.277Z,-3.22
2022-11-21T20:11:30.222Z,-3.15
2022-11-21T20:13:57.115Z,-3.10
2022-11-21T20:16:34.060Z,-3.14
2022-11-21T20:19:02.881Z,-3.11
2022-11-21T20:21:30.136Z,-3.10
2022-11-21T20:23:57.078Z,-3.15
2022-11-21T20:26:24.691Z,-3.15
2022-11-21T20:28:51.429Z,-3.19
2022-11-21T20:31:20.567Z,-3.14
2022-11-21T20:33:49.649Z,-3.33
2022-11-21T20:36:24.038Z,-3.17
2022-11-21T20:38:52.583Z,-3.25
2022-11-21T20:41:20.108Z,-3.15
2022-11-21T20:46:35.255Z,-3.20
2022-11-21T20:49:02.584Z,-3.18
2022-11-21T20:54:18.511Z,-3.35
2022-11-21T20:56:48.291Z,-3.16
2022-11-21T20:59:14.886Z,-3.12
2022-11-21T21:01:43.634Z,-3.09
2022-11-21T21:04:10.250Z,-3.10
2022-11-21T21:06:37.665Z,-3.15
2022-11-21T21:09:04.710Z,-3.13
2022-11-21T21:11:50.841Z,-3.18
2022-11-21T21:14:17.895Z,-3.18
2022-11-21T21:16:44.473Z,-3.20
2022-11-21T21:19:11.038Z,-3.14
2022-11-21T21:21:40.103Z,-3.18
2022-11-21T21:24:08.576Z,-3.30
2022-11-21T21:26:55.155Z,-3.34
2022-11-21T21:29:24.818Z,-3.30
2022-11-21T21:31:52.608Z,-3.33
2022-11-21T21:34:24.028Z,-3.28
2022-11-21T21:36:51.366Z,-3.25
2022-11-21T21:39:18.074Z,-3.29
2022-11-21T21:41:47.488Z,-3.26
2022-11-21T21:44:15.124Z,-3.31
2022-11-21T21:46:42.073Z,-3.25
2022-11-21T21:49:09.586Z,-3.24
2022-11-21T21:51:37.490Z,-3.21
2022-11-21T21:54:06.524Z,-3.21
2022-11-21T21:56:34.749Z,-3.20
2022-11-21T21:59:01.548Z,-3.25
2022-11-21T22:01:30.614Z,-3.24
2022-11-21T22:03:59.530Z,-3.32
2022-11-21T22:06:26.192Z,-3.34
2022-11-21T22:08:54.392Z,-3.37
2022-11-21T22:11:24.679Z,-3.38
2022-11-21T22:13:56.734Z,-3.43
2022-11-21T22:16:24.030Z,-3.43
2022-11-21T22:18:51.538Z,-3.37
2022-11-21T22:21:33.151Z,-3.28
2022-11-21T22:24:24.115Z,-3.29
2022-11-21T22:26:48.650Z,-3.25
2022-11-21T22:29:15.324Z,-3.25
2022-11-21T22:31:41.953Z,-3.24
2022-11-21T22:34:13.052Z,-3.26
2022-11-21T22:36:40.112Z,-3.20
2022-11-21T22:39:06.770Z,-3.30
2022-11-21T22:41:33.525Z,-3.25
2022-11-21T22:44:01.161Z,-3.25
2022-11-21T22:46:29.402Z,-3.30
2022-11-21T22:48:56.213Z,-3.38
2022-11-21T22:51:25.606Z,-3.28
2022-11-21T22:53:53.649Z,-3.27
2022-11-21T22:56:24.454Z,-3.27
2022-11-21T22:58:52.363Z,-3.25
2022-11-21T23:01:21.754Z,-3.26
2022-11-21T23:03:49.292Z,-3.33
2022-11-21T23:06:29.738Z,-3.23
2022-11-21T23:08:57.231Z,-3.20
2022-11-21T23:11:29.313Z,-3.17
2022-11-21T23:13:57.848Z,-3.13
2022-11-21T23:16:25.716Z,-3.15
2022-11-21T23:18:53.929Z,-3.11
2022-11-21T23:21:21.438Z,-3.29
2022-11-21T23:23:48.396Z,-3.14
2022-11-21T23:26:15.122Z,-3.22
2022-11-21T23:28:41.879Z,-3.17
2022-11-21T23:31:09.910Z,-3.24
2022-11-21T23:33:36.539Z,-3.22
2022-11-21T23:36:03.319Z,-3.19
2022-11-21T23:38:29.995Z,-3.20
2022-11-21T23:40:56.684Z,-3.21
2022-11-21T23:43:23.542Z,-3.22
2022-11-21T23:45:51.837Z,-3.20
2022-11-21T23:48:19.297Z,-3.18
2022-11-21T23:50:47.995Z,-3.20
2022-11-21T23:53:14.893Z,-3.29
2022-11-21T23:55:43.679Z,-3.19
2022-11-21T23:58:10.662Z,-3.22
